Home > Products > Valid Products > MTR

000
SAGM31 PGUM 281425
MTRGUM
SPECI PGUM 281424Z 28011KT 10SM FEW009 BKN019 OVC110 25/24 A2985 RMK
AO2 CIG 015V032





000
SAGM31 PGUM 281355
MTRGUM
METAR PGUM 281354Z 01003KT 10SM FEW075 BKN110 25/24 A2984 RMK AO2
RAE00B33E52 SLP098 P0000 T02500239 402890239





000
SAGM31 PGUM 281355
MTRGUM
METAR PGUM 281354Z 01003KT 10SM FEW075 BKN110 25/24 A2984 RMK AO2
RAE00B33E52 SLP098 P0000 T02500239 402890239




000
SAGM31 PGUM 281255
MTRGUM
METAR PGUM 281254Z 36009KT 10SM -RA FEW021 SCT070 OVC100 24/24 A2985
RMK AO2 SLP100 P0004 T02440239





000
SAGM31 PGUM 281255
MTRGUM
METAR PGUM 281254Z 36009KT 10SM -RA FEW021 SCT070 OVC100 24/24 A2985
RMK AO2 SLP100 P0004 T02440239




000
SAGM31 PGUM 281250
MTRGUM
SPECI PGUM 281249Z 36009KT 10SM -RA FEW021 BKN075 OVC100 24/24 A2985
RMK AO2 P0004




000
SAGM31 PGUM 281250
MTRGUM
SPECI PGUM 281249Z 36009KT 10SM -RA FEW021 BKN075 OVC100 24/24 A2985
RMK AO2 P0004





000
SAGM31 PGUM 281242
MTRGUM
SPECI PGUM 281241Z 01011KT 10SM -RA BKN023 BKN050 OVC090 24/24 A2986
RMK AO2 P0004




000
SAGM31 PGUM 281242
MTRGUM
SPECI PGUM 281241Z 01011KT 10SM -RA BKN023 BKN050 OVC090 24/24 A2986
RMK AO2 P0004





000
SAGM31 PGUM 281234
MTRGUM
SPECI PGUM 281233Z 01007KT 8SM RA SCT022 BKN055 OVC090 24/23 A2986
RMK AO2 P0003




000
SAGM31 PGUM 281234
MTRGUM
SPECI PGUM 281233Z 01007KT 8SM RA SCT022 BKN055 OVC090 24/23 A2986
RMK AO2 P0003





000
SAGM31 PGUM 281225
MTRGUM
SPECI PGUM 281224Z 04004KT 7SM RA BKN022 BKN032 OVC095 25/23 A2987
RMK AO2 P0002




000
SAGM31 PGUM 281225
MTRGUM
SPECI PGUM 281224Z 04004KT 7SM RA BKN022 BKN032 OVC095 25/23 A2987
RMK AO2 P0002





000
SAGM31 PGUM 281209
MTRGUM
SPECI PGUM 281208Z 34005KT 10SM -RA FEW017 BKN031 OVC095 25/24 A2986
RMK AO2 P0001




000
SAGM31 PGUM 281209
MTRGUM
SPECI PGUM 281208Z 34005KT 10SM -RA FEW017 BKN031 OVC095 25/24 A2986
RMK AO2 P0001





000
SAGM31 PGUM 281155
MTRGUM
METAR PGUM 281154Z 34008KT 8SM -RA BKN017 BKN033 OVC050 25/24 A2986
RMK AO2 SLP105 P0035 60052 70069 T02500239 10283 20239 50009




000
SAGM31 PGUM 281155
MTRGUM
METAR PGUM 281154Z 34008KT 8SM -RA BKN017 BKN033 OVC050 25/24 A2986
RMK AO2 SLP105 P0035 60052 70069 T02500239 10283 20239 50009





000
SAGM31 PGUM 281152
MTRGUM
SPECI PGUM 281151Z 34006KT 8SM -RA BKN015 BKN025 OVC041 25/24 A2986
RMK AO2 P0035 60052 70069




000
SAGM31 PGUM 281152
MTRGUM
SPECI PGUM 281151Z 34006KT 8SM -RA BKN015 BKN025 OVC041 25/24 A2986
RMK AO2 P0035 60052 70069





000
SAGM31 PGUM 281122
MTRGUM
SPECI PGUM 281121Z 33010G15KT 3SM RA BR FEW024 BKN030 OVC038 24/23
A2987 RMK AO2 P0029




000
SAGM31 PGUM 281105
MTRGUM
SPECI PGUM 281104Z 33009G19KT 2SM +RA BR FEW008 BKN015 OVC032 24/23
A2986 RMK AO2 VIS 1 1/4V4 P0014




000
SAGM31 PGUM 281105
MTRGUM
SPECI PGUM 281104Z 33009G19KT 2SM +RA BR FEW008 BKN015 OVC032 24/23
A2986 RMK AO2 VIS 1 1/4V4 P0014





000
SAGM31 PGUM 281055
MTRGUM
METAR PGUM 281054Z 36017G28KT 3SM +RA BR FEW008 SCT017 OVC023 26/24
A2985 RMK AO2 PK WND 34028/1052 RAB00 SLP100 P0006 T02560244





000
SAGM31 PGUM 281043
MTRGUM
SPECI PGUM 281042Z 03008KT 10SM -RA SCT021 BKN026 OVC100 26/24 A2985
RMK AO2 RAB00 P0001





000
SAGM31 PGUM 281043
MTRGUM
SPECI PGUM 281042Z 03008KT 10SM -RA SCT021 BKN026 OVC100 26/24 A2985
RMK AO2 RAB00 P0001




000
SAGM31 PGUM 281025
MTRGUM
SPECI PGUM 281024Z 01009KT 10SM -RA FEW015 BKN080 OVC100 26/25 A2984
RMK AO2 RAB00 P0000




000
SAGM31 PGUM 281025
MTRGUM
SPECI PGUM 281024Z 01009KT 10SM -RA FEW015 BKN080 OVC100 26/25 A2984
RMK AO2 RAB00 P0000





000
SAGM31 PGUM 281002
MTRGUM
SPECI PGUM 281001Z 34008KT 9SM -RA SCT012 BKN023 OVC030 27/25 A2984
RMK AO2 RAB00 P0000




000
SAGM31 PGUM 281002
MTRGUM
SPECI PGUM 281001Z 34008KT 9SM -RA SCT012 BKN023 OVC030 27/25 A2984
RMK AO2 RAB00 P0000





000
SAGM31 PGUM 280955
MTRGUM
METAR PGUM 280954Z 34009KT 10SM FEW012 SCT017 OVC030 27/26 A2984 RMK
AO2 SLP095 T02720256




000
SAGM31 PGUM 280955
MTRGUM
METAR PGUM 280954Z 34009KT 10SM FEW012 SCT017 OVC030 27/26 A2984 RMK
AO2 SLP095 T02720256





000
SAGM31 PGUM 280948
MTRGUM
SPECI PGUM 280947Z 34007KT 10SM SCT019 BKN028 OVC040 27/26 A2983 RMK
AO2





000
SAGM31 PGUM 280948
MTRGUM
SPECI PGUM 280947Z 34007KT 10SM SCT019 BKN028 OVC040 27/26 A2983 RMK
AO2




000
SAGM31 PGUM 280921
MTRGUM
SPECI PGUM 280920Z 31008KT 10SM FEW017 SCT026 BKN120 27/25 A2982 RMK
AO2




000
SAGM31 PGUM 280921
MTRGUM
SPECI PGUM 280920Z 31008KT 10SM FEW017 SCT026 BKN120 27/25 A2982 RMK
AO2





000
SAGM31 PGUM 280855
MTRGUM
METAR PGUM 280854Z 32008KT 10SM FEW018 BKN024 OVC120 28/25 A2982 RMK
AO2 SLP089 T02780250 53009




000
SAGM31 PGUM 280807
MTRGUM
SPECI PGUM 280806Z 29012KT 10SM SCT017 SCT031 BKN070 28/25 A2980 RMK
AO2




000
SAGM31 PGUM 280807
MTRGUM
SPECI PGUM 280806Z 29012KT 10SM SCT017 SCT031 BKN070 28/25 A2980 RMK
AO2





000
SAGM31 PGUM 280755
MTRGUM
METAR PGUM 280754Z 29010KT 10SM SCT017 BKN027 BKN110 28/25 A2979 RMK
AO2 SLP081 T02780250




000
SAGM31 PGUM 280755
MTRGUM
METAR PGUM 280754Z 29010KT 10SM SCT017 BKN027 BKN110 28/25 A2979 RMK
AO2 SLP081 T02780250





000
SAGM31 PGUM 280655
MTRGUM
METAR PGUM 280654Z 28012KT 10SM FEW020 SCT025 OVC100 28/24 A2979 RMK
AO2 SLP080 T02780244




000
SAGM31 PGUM 280655
MTRGUM
METAR PGUM 280654Z 28012KT 10SM FEW020 SCT025 OVC100 28/24 A2979 RMK
AO2 SLP080 T02780244





000
SAGM31 PGUM 280555
MTRGUM
METAR PGUM 280554Z 26010KT 10SM FEW020 BKN042 OVC100 28/26 A2979 RMK
AO2 RAE31 SLP080 P0000 60011 T02780256 10289 20250 55016




000
SAGM31 PGUM 280555
MTRGUM
METAR PGUM 280554Z 26010KT 10SM FEW020 BKN042 OVC100 28/26 A2979 RMK
AO2 RAE31 SLP080 P0000 60011 T02780256 10289 20250 55016





000
SAGM31 PGUM 280455
MTRGUM
METAR PGUM 280454Z 27009KT 10SM -RA FEW018 SCT042 BKN100 27/26 A2979
RMK AO2 RAB28 SLP078 P0000 T02720256




000
SAGM31 PGUM 280455
MTRGUM
METAR PGUM 280454Z 27009KT 10SM -RA FEW018 SCT042 BKN100 27/26 A2979
RMK AO2 RAB28 SLP078 P0000 T02720256





000
SAGM31 PGUM 280355
MTRGUM
METAR PGUM 280354Z 25009KT 10SM FEW018 SCT060 OVC090 27/24 A2979 RMK
AO2 RAE23 SLP082 P0003 T02670244





000
SAGM31 PGUM 280355
MTRGUM
METAR PGUM 280354Z 25009KT 10SM FEW018 SCT060 OVC090 27/24 A2979 RMK
AO2 RAE23 SLP082 P0003 T02670244




000
SAGM31 PGUM 280255
MTRGUM
METAR PGUM 280254Z 28010KT 4SM RA BR FEW012 OVC060 25/23 A2984 RMK
AO2 RAE0155B47 SLP097 P0001 60003 T02500233 57005




000
SAGM31 PGUM 280255
MTRGUM
METAR PGUM 280254Z 28010KT 4SM RA BR FEW012 OVC060 25/23 A2984 RMK
AO2 RAE0155B47 SLP097 P0001 60003 T02500233 57005





000
SAGM31 PGUM 280202
MTRGUM
SPECI PGUM 280201Z 28005KT 10SM FEW018 SCT036 OVC049 27/25 A2984 RMK
AO2 RAE0155





000
SAGM31 PGUM 280202
MTRGUM
SPECI PGUM 280201Z 28005KT 10SM FEW018 SCT036 OVC049 27/25 A2984 RMK
AO2 RAE0155




000
SAGM31 PGUM 280155
MTRGUM
METAR PGUM 280154Z 26011KT 10SM -RA FEW018 BKN025 OVC045 27/24 A2984
RMK AO2 RAB39 SLP099 P0002 T02670244




000
SAGM31 PGUM 280155
MTRGUM
METAR PGUM 280154Z 26011KT 10SM -RA FEW018 BKN025 OVC045 27/24 A2984
RMK AO2 RAB39 SLP099 P0002 T02670244





000
SAGM31 PGUM 280135
MTRGUM
SPECI PGUM 280134Z 27009G14KT 10SM SCT016 BKN022 BKN035 29/26 A2984
RMK AO2





000
SAGM31 PGUM 280135
MTRGUM
SPECI PGUM 280134Z 27009G14KT 10SM SCT016 BKN022 BKN035 29/26 A2984
RMK AO2




000
SAGM31 PGUM 280055
MTRGUM
METAR PGUM 280054Z 25006KT 10SM FEW018 SCT039 BKN100 28/26 A2985 RMK
AO2 RAE04 SLP099 P0000 T02830256




000
SAGM31 PGUM 280055
MTRGUM
METAR PGUM 280054Z 25006KT 10SM FEW018 SCT039 BKN100 28/26 A2985 RMK
AO2 RAE04 SLP099 P0000 T02830256





000
SAGM31 PGUM 272355
MTRGUM
METAR PGUM 272354Z 22004KT 10SM -RA FEW038 OVC070 26/24 A2985 RMK
AO2 SLP102 P0002 60004 T02610244 10283 20250 50009 $





000
SAGM31 PGUM 272355
MTRGUM
METAR PGUM 272354Z 22004KT 10SM -RA FEW038 OVC070 26/24 A2985 RMK
AO2 SLP102 P0002 60004 T02610244 10283 20250 50009 $




000
SAGM31 PGUM 272320
MTRGUM
SPECI PGUM 272319Z 24004KT 10SM -RA SCT020 BKN034 OVC060 27/25 A2986
RMK AO2 P0000 PNO $




000
SAGM31 PGUM 272320
MTRGUM
SPECI PGUM 272319Z 24004KT 10SM -RA SCT020 BKN034 OVC060 27/25 A2986
RMK AO2 P0000 PNO $





000
SAGM31 PGUM 272313
MTRGUM
SPECI PGUM 272312Z 00000KT 7SM -RA BKN020 BKN034 OVC060 27/25 A2986
RMK AO2 P0000




000
SAGM31 PGUM 272313
MTRGUM
SPECI PGUM 272312Z 00000KT 7SM -RA BKN020 BKN034 OVC060 27/25 A2986
RMK AO2 P0000





000
SAGM31 PGUM 272255
MTRGUM
METAR PGUM 272254Z 00000KT 10SM -RA SCT030 BKN043 OVC110 28/26 A2986
RMK AO2 RAB35 SLP103 P0000 T02830256




000
SAGM31 PGUM 272255
MTRGUM
METAR PGUM 272254Z 00000KT 10SM -RA SCT030 BKN043 OVC110 28/26 A2986
RMK AO2 RAB35 SLP103 P0000 T02830256





000
SAGM31 PGUM 272248
MTRGUM
SPECI PGUM 272247Z 00000KT 10SM -RA FEW021 BKN033 OVC075 28/26 A2986
RMK AO2 RAB35 P0000




000
SAGM31 PGUM 272248
MTRGUM
SPECI PGUM 272247Z 00000KT 10SM -RA FEW021 BKN033 OVC075 28/26 A2986
RMK AO2 RAB35 P0000





000
SAGM31 PGUM 272222
MTRGUM
SPECI PGUM 272221Z 00000KT 10SM BKN019 BKN031 OVC100 27/25 A2986 RMK
AO2





000
SAGM31 PGUM 272222
MTRGUM
SPECI PGUM 272221Z 00000KT 10SM BKN019 BKN031 OVC100 27/25 A2986 RMK
AO2




000
SAGM31 PGUM 272155
MTRGUM
METAR PGUM 272154Z 26005KT 10SM OVC095 27/25 A2985 RMK AO2 SLP101
T02720250





000
SAGM31 PGUM 272155
MTRGUM
METAR PGUM 272154Z 26005KT 10SM OVC095 27/25 A2985 RMK AO2 SLP101
T02720250




000
SAGM31 PGUM 272055
MTRGUM
METAR PGUM 272054Z 23003KT 10SM BKN120 26/24 A2983 RMK AO2 SLP093
T02610244 53013




000
SAGM31 PGUM 272055
MTRGUM
METAR PGUM 272054Z 23003KT 10SM BKN120 26/24 A2983 RMK AO2 SLP093
T02610244 53013





000
SAGM31 PGUM 271955
MTRGUM
METAR PGUM 271954Z 26006KT 10SM FEW120 26/24 A2980 RMK AO2 SLP085
T02610239




000
SAGM31 PGUM 271955
MTRGUM
METAR PGUM 271954Z 26006KT 10SM FEW120 26/24 A2980 RMK AO2 SLP085
T02610239





000
SAGM31 PGUM 271855
MTRGUM
METAR PGUM 271854Z 25004KT 10SM CLR 26/24 A2978 RMK AO2 SLP076
T02560239




000
SAGM31 PGUM 271855
MTRGUM
METAR PGUM 271854Z 25004KT 10SM CLR 26/24 A2978 RMK AO2 SLP076
T02560239





000
SAGM31 PGUM 271755
MTRGUM
METAR PGUM 271754Z 25004KT 10SM CLR 25/23 A2979 RMK AO2 SLP079 60000
T02500233 10261 20250 58012





000
SAGM31 PGUM 271755
MTRGUM
METAR PGUM 271754Z 25004KT 10SM CLR 25/23 A2979 RMK AO2 SLP079 60000
T02500233 10261 20250 58012




000
SAGM31 PGUM 271655
MTRGUM
METAR PGUM 271654Z 24005KT 10SM SCT021 BKN030 BKN040 26/24 A2980 RMK
AO2 RAB27E29 SLP085 P0000 T02610244





000
SAGM31 PGUM 271655
MTRGUM
METAR PGUM 271654Z 24005KT 10SM SCT021 BKN030 BKN040 26/24 A2980 RMK
AO2 RAB27E29 SLP085 P0000 T02610244




000
SAGM31 PGUM 271647
MTRGUM
SPECI PGUM 271646Z 23005KT 10SM FEW019 SCT024 BKN032 26/24 A2981 RMK
AO2 RAB27E29 P0000





000
SAGM31 PGUM 271647
MTRGUM
SPECI PGUM 271646Z 23005KT 10SM FEW019 SCT024 BKN032 26/24 A2981 RMK
AO2 RAB27E29 P0000




000
SAGM31 PGUM 271555
MTRGUM
METAR PGUM 271554Z 27005KT 10SM SCT023 BKN028 26/24 A2981 RMK AO2
SLP088 T02560239




000
SAGM31 PGUM 271555
MTRGUM
METAR PGUM 271554Z 27005KT 10SM SCT023 BKN028 26/24 A2981 RMK AO2
SLP088 T02560239





000
SAGM31 PGUM 271455
MTRGUM
METAR PGUM 271454Z 26007KT 10SM CLR 26/24 A2982 RMK AO2 SLP091
T02560239 58010




000
SAGM31 PGUM 271455
MTRGUM
METAR PGUM 271454Z 26007KT 10SM CLR 26/24 A2982 RMK AO2 SLP091
T02560239 58010





000
SAGM31 PGUM 271355
MTRGUM
METAR PGUM 271354Z 24007KT 10SM FEW018 SCT026 26/24 A2984 RMK AO2
SLP097 T02560244 402780239





000
SAGM31 PGUM 271317
MTRGUM
SPECI PGUM 271316Z 24009KT 10SM BKN016 25/24 A2984 RMK AO2




000
SAGM31 PGUM 271317
MTRGUM
SPECI PGUM 271316Z 24009KT 10SM BKN016 25/24 A2984 RMK AO2





000
SAGM31 PGUM 271255
MTRGUM
METAR PGUM 271254Z 23006KT 10SM FEW024 SCT100 25/24 A2985 RMK AO2
SLP100 T02500239





000
SAGM31 PGUM 271255
MTRGUM
METAR PGUM 271254Z 23006KT 10SM FEW024 SCT100 25/24 A2985 RMK AO2
SLP100 T02500239




000
SAGM31 PGUM 271155
MTRGUM
METAR PGUM 271154Z 15003KT 10SM FEW024 BKN100 25/24 A2985 RMK AO2
RAE26 SLP102 60013 70117 T02500239 10250 20239 50013





000
SAGM31 PGUM 271155
MTRGUM
METAR PGUM 271154Z 15003KT 10SM FEW024 BKN100 25/24 A2985 RMK AO2
RAE26 SLP102 60013 70117 T02500239 10250 20239 50013




000
SAGM31 PGUM 271055
MTRGUM
METAR PGUM 271054Z 00000KT 10SM -RA CLR 25/24 A2986 RMK AO2 SLP103
P0001 T02500239




000
SAGM31 PGUM 270955
MTRGUM
METAR PGUM 270954Z 00000KT 10SM -RA FEW040 SCT100 24/23 A2985 RMK
AO2 RAB42 SLP100 P0000 T02440233




000
SAGM31 PGUM 270955
MTRGUM
METAR PGUM 270954Z 00000KT 10SM -RA FEW040 SCT100 24/23 A2985 RMK
AO2 RAB42 SLP100 P0000 T02440233





000
SAGM31 PGUM 270855
MTRGUM
METAR PGUM 270854Z 20004KT 10SM FEW039 SCT095 BKN110 24/23 A2982 RMK
AO2 RAE52 SLP089 P0000 60006 T02440233 58004




000
SAGM31 PGUM 270855
MTRGUM
METAR PGUM 270854Z 20004KT 10SM FEW039 SCT095 BKN110 24/23 A2982 RMK
AO2 RAE52 SLP089 P0000 60006 T02440233 58004





000
SAGM31 PGUM 270755
MTRGUM
METAR PGUM 270754Z 23011G16KT 10SM -RA SCT012 SCT017 BKN034 24/23
A2982 RMK AO2 SLP092 P0002 T02440228




000
SAGM31 PGUM 270755
MTRGUM
METAR PGUM 270754Z 23011G16KT 10SM -RA SCT012 SCT017 BKN034 24/23
A2982 RMK AO2 SLP092 P0002 T02440228





000
SAGM31 PGUM 270730
MTRGUM
SPECI PGUM 270729Z 19005KT 10SM -RA SCT012 BKN025 OVC070 24/24 A2983
RMK AO2 P0002





000
SAGM31 PGUM 270730
MTRGUM
SPECI PGUM 270729Z 19005KT 10SM -RA SCT012 BKN025 OVC070 24/24 A2983
RMK AO2 P0002




000
SAGM31 PGUM 270655
MTRGUM
METAR PGUM 270654Z 25003KT 10SM -RA SCT070 OVC090 24/23 A2983 RMK
AO2 SLP093 P0004 T02440233




000
SAGM31 PGUM 270655
MTRGUM
METAR PGUM 270654Z 25003KT 10SM -RA SCT070 OVC090 24/23 A2983 RMK
AO2 SLP093 P0004 T02440233





000
SAGM31 PGUM 270626
MTRGUM
SPECI PGUM 270625Z VRB04KT 10SM -RA FEW011 BKN070 OVC095 24/24 A2982
RMK AO2 P0003




000
SAGM31 PGUM 270626
MTRGUM
SPECI PGUM 270625Z VRB04KT 10SM -RA FEW011 BKN070 OVC095 24/24 A2982
RMK AO2 P0003





000
SAGM31 PGUM 270610
MTRGUM
SPECI PGUM 270609Z 22007KT 8SM -RA BKN013 BKN027 OVC050 25/24 A2982
RMK AO2 P0002




000
SAGM31 PGUM 270610
MTRGUM
SPECI PGUM 270609Z 22007KT 8SM -RA BKN013 BKN027 OVC050 25/24 A2982
RMK AO2 P0002





000
SAGM31 PGUM 270555
MTRGUM
METAR PGUM 270554Z 21003KT 10SM -RA BKN015 BKN039 OVC046 25/24 A2983
RMK AO2 RAE00B37 SLP093 P0000 60082 T02500239 10272 20244 56006 $




000
SAGM31 PGUM 270555
MTRGUM
METAR PGUM 270554Z 21003KT 10SM -RA BKN015 BKN039 OVC046 25/24 A2983
RMK AO2 RAE00B37 SLP093 P0000 60082 T02500239 10272 20244 56006 $





000
SAGM31 PGUM 270552
MTRGUM
SPECI PGUM 270551Z 23003KT 10SM -RA BKN015 BKN039 OVC046 25/24 A2983
RMK AO2 RAE00B37 P0000 60082 $




000
SAGM31 PGUM 270552
MTRGUM
SPECI PGUM 270551Z 23003KT 10SM -RA BKN015 BKN039 OVC046 25/24 A2983
RMK AO2 RAE00B37 P0000 60082 $





000
SAGM31 PGUM 270455
MTRGUM
METAR PGUM 270454Z 21005KT 10SM -RA FEW008 BKN040 OVC110 26/24 A2983
RMK AO2 SLP093 P0014 T02560244 $





000
SAGM31 PGUM 270455
MTRGUM
METAR PGUM 270454Z 21005KT 10SM -RA FEW008 BKN040 OVC110 26/24 A2983
RMK AO2 SLP093 P0014 T02560244 $




000
SAGM31 PGUM 270410
MTRGUM
SPECI PGUM 270409Z 29006KT 4SM RA BR SCT007 BKN020 OVC070 25/24
A2984 RMK AO2 P0007 $




000
SAGM31 PGUM 270410
MTRGUM
SPECI PGUM 270409Z 29006KT 4SM RA BR SCT007 BKN020 OVC070 25/24
A2984 RMK AO2 P0007 $





000
SAGM31 PGUM 270400
MTRGUM
SPECI PGUM 270359Z 31011G17KT 2SM +RA BR SCT004 BKN010 OVC020 24/24
A2984 RMK AO2 P0003 $





000
SAGM31 PGUM 270400
MTRGUM
SPECI PGUM 270359Z 31011G17KT 2SM +RA BR SCT004 BKN010 OVC020 24/24
A2984 RMK AO2 P0003 $




000
SAGM31 PGUM 270355
MTRGUM
METAR PGUM 270354Z 31011KT 2 1/2SM +RA BR SCT007 BKN014 OVC030 24/24
A2984 RMK AO2 SLP099 P0016 T02440244 $




000
SAGM31 PGUM 270355
MTRGUM
METAR PGUM 270354Z 31011KT 2 1/2SM +RA BR SCT007 BKN014 OVC030 24/24
A2984 RMK AO2 SLP099 P0016 T02440244 $





000
SAGM31 PGUM 270335
MTRGUM
SPECI PGUM 270334Z 31013G18KT 2SM +RA BR SCT007 BKN014 OVC020 25/24
A2985 RMK AO2 P0005 $




000
SAGM31 PGUM 270335
MTRGUM
SPECI PGUM 270334Z 31013G18KT 2SM +RA BR SCT007 BKN014 OVC020 25/24
A2985 RMK AO2 P0005 $





000
SAGM31 PGUM 270333
MTRGUM
SPECI PGUM 270332Z 31013G18KT 3SM +RA BR SCT007 BKN014 OVC030 25/24
A2985 RMK AO2 P0004 $




000
SAGM31 PGUM 270333
MTRGUM
SPECI PGUM 270332Z 31013G18KT 3SM +RA BR SCT007 BKN014 OVC030 25/24
A2985 RMK AO2 P0004 $





000
SAGM31 PGUM 270328
MTRGUM
SPECI PGUM 270327Z 31012KT 5SM RA BR SCT007 BKN034 OVC060 26/24
A2985 RMK AO2 P0003 $





000
SAGM31 PGUM 270328
MTRGUM
SPECI PGUM 270327Z 31012KT 5SM RA BR SCT007 BKN034 OVC060 26/24
A2985 RMK AO2 P0003 $




000
SAGM31 PGUM 270255
MTRGUM
METAR PGUM 270254Z 34005KT 5SM RA BR FEW060 OVC090 26/25 A2984 RMK
AO2 SLP097 P0007 60046 T02560250 58014 $





000
SAGM31 PGUM 270255
MTRGUM
METAR PGUM 270254Z 34005KT 5SM RA BR FEW060 OVC090 26/25 A2984 RMK
AO2 SLP097 P0007 60046 T02560250 58014 $




000
SAGM31 PGUM 270155
MTRGUM
METAR PGUM 270154Z 32005KT 8SM -RA FEW013 BKN070 OVC085 25/24 A2986
RMK AO2 SLP105 P0015 T02500244 $




000
SAGM31 PGUM 270155
MTRGUM
METAR PGUM 270154Z 32005KT 8SM -RA FEW013 BKN070 OVC085 25/24 A2986
RMK AO2 SLP105 P0015 T02500244 $





000
SAGM31 PGUM 270142
MTRGUM
SPECI PGUM 270141Z 32005KT 4SM -RA BR FEW006 BKN036 OVC085 24/24
A2987 RMK AO2 P0014 $





000
SAGM31 PGUM 270142
MTRGUM
SPECI PGUM 270141Z 32005KT 4SM -RA BR FEW006 BKN036 OVC085 24/24
A2987 RMK AO2 P0014 $




000
SAGM31 PGUM 270140
MTRGUM
SPECI PGUM 270139Z 31003KT 3SM RA BR SCT006 BKN014 OVC030 24/24
A2987 RMK AO2 P0014 $





000
SAGM31 PGUM 270140
MTRGUM
SPECI PGUM 270139Z 31003KT 3SM RA BR SCT006 BKN014 OVC030 24/24
A2987 RMK AO2 P0014 $




000
SAGM31 PGUM 270129
MTRGUM
SPECI PGUM 270128Z 25006KT 1 1/2SM +RA BR SCT006 BKN014 OVC030 24/24
A2988 RMK AO2 P0008 $




000
SAGM31 PGUM 270129
MTRGUM
SPECI PGUM 270128Z 25006KT 1 1/2SM +RA BR SCT006 BKN014 OVC030 24/24
A2988 RMK AO2 P0008 $





000
SAGM31 PGUM 270128
MTRGUM
SPECI PGUM 270127Z 26005KT 1 3/4SM +RA BR SCT006 BKN020 OVC035 24/24
A2988 RMK AO2 P0007 $




000
SAGM31 PGUM 270128
MTRGUM
SPECI PGUM 270127Z 26005KT 1 3/4SM +RA BR SCT006 BKN020 OVC035 24/24
A2988 RMK AO2 P0007 $





000
SAGM31 PGUM 270107
MTRGUM
SPECI PGUM 270106Z 27006KT 5SM RA BR FEW008 BKN022 OVC070 25/24
A2987 RMK AO2 P0001 $




000
SAGM31 PGUM 270107
MTRGUM
SPECI PGUM 270106Z 27006KT 5SM RA BR FEW008 BKN022 OVC070 25/24
A2987 RMK AO2 P0001 $





000
SAGM31 PGUM 270055
MTRGUM
METAR PGUM 270054Z 28007KT 8SM -RA FEW030 BKN045 OVC070 25/24 A2987
RMK AO2 RAB2359 SLP108 P0013 T02500239 $





000
SAGM31 PGUM 270055
MTRGUM
METAR PGUM 270054Z 28007KT 8SM -RA FEW030 BKN045 OVC070 25/24 A2987
RMK AO2 RAB2359 SLP108 P0013 T02500239 $




000
SAGM31 PGUM 270038
MTRGUM
SPECI PGUM 270037Z 23007KT 10SM -RA FEW010 BKN037 OVC050 25/24 A2987
RMK AO2 RAB2359 P0012 $




000
SAGM31 PGUM 270038
MTRGUM
SPECI PGUM 270037Z 23007KT 10SM -RA FEW010 BKN037 OVC050 25/24 A2987
RMK AO2 RAB2359 P0012 $





000
SAGM31 PGUM 270016
MTRGUM
SPECI PGUM 270015Z 23010KT 3SM -RA BR SCT010 BKN018 OVC028 25/24
A2988 RMK AO2 RAB2359 P0008 $





000
SAGM31 PGUM 270016
MTRGUM
SPECI PGUM 270015Z 23010KT 3SM -RA BR SCT010 BKN018 OVC028 25/24
A2988 RMK AO2 RAB2359 P0008 $




000
SAGM31 PGUM 270011
MTRGUM
SPECI PGUM 270010Z 22009G16KT 1 1/2SM +RA BR SCT008 BKN014 OVC043
26/24 A2988 RMK AO2 RAB2359 P0007 $




000
SAGM31 PGUM 270011
MTRGUM
SPECI PGUM 270010Z 22009G16KT 1 1/2SM +RA BR SCT008 BKN014 OVC043
26/24 A2988 RMK AO2 RAB2359 P0007 $





000
SAGM31 PGUM 270005
MTRGUM
SPECI PGUM 270004Z 22010KT 1 3/4SM +RA BR SCT010 BKN019 OVC043 26/25
A2989 RMK AO2 RAB2359 P0002 $





000
SAGM31 PGUM 270005
MTRGUM
SPECI PGUM 270004Z 22010KT 1 3/4SM +RA BR SCT010 BKN019 OVC043 26/25
A2989 RMK AO2 RAB2359 P0002 $




000
SAGM31 PGUM 262355
MTRGUM
METAR PGUM 262354Z 23006KT 10SM FEW012 BKN021 OVC043 27/25 A2988 RMK
AO2 RAB32E47 SLP110 60016 P0004 T02720250 10278 20239 53009 $




000
SAGM31 PGUM 262355
MTRGUM
METAR PGUM 262354Z 23006KT 10SM FEW012 BKN021 OVC043 27/25 A2988 RMK
AO2 RAB32E47 SLP110 60016 P0004 T02720250 10278 20239 53009 $





000
SAGM31 PGUM 262334
MTRGUM
SPECI PGUM 262333Z 22005KT 7SM -RA SCT012 BKN026 27/26 A2987 RMK AO2
RAB32 P0000 $




000
SAGM31 PGUM 262334
MTRGUM
SPECI PGUM 262333Z 22005KT 7SM -RA SCT012 BKN026 27/26 A2987 RMK AO2
RAB32 P0000 $





000
SAGM31 PGUM 262255
MTRGUM
METAR PGUM 262254Z 00000KT 10SM FEW031 27/25 A2986 RMK AO2 RAE38
SLP103 P0003 T02720250 $




000
SAGM31 PGUM 262255
MTRGUM
METAR PGUM 262254Z 00000KT 10SM FEW031 27/25 A2986 RMK AO2 RAE38
SLP103 P0003 T02720250 $





000
SAGM31 PGUM 262155
MTRGUM
METAR PGUM 262154Z 00000KT 10SM -RA FEW032 SCT055 OVC075 26/25 A2987
RMK AO2 RAB00 SLP106 P0009 T02610250 $





000
SAGM31 PGUM 262155
MTRGUM
METAR PGUM 262154Z 00000KT 10SM -RA FEW032 SCT055 OVC075 26/25 A2987
RMK AO2 RAB00 SLP106 P0009 T02610250 $




000
SAGM31 PGUM 262132
MTRGUM
SPECI PGUM 262131Z 01003KT 10SM -RA FEW015 SCT031 OVC055 26/24 A2987
RMK AO2 RAB00 P0007 $





000
SAGM31 PGUM 262132
MTRGUM
SPECI PGUM 262131Z 01003KT 10SM -RA FEW015 SCT031 OVC055 26/24 A2987
RMK AO2 RAB00 P0007 $




000
SAGM31 PGUM 262112
MTRGUM
SPECI PGUM 262111Z 28004KT 10SM +RA FEW013 BKN025 OVC034 26/24 A2986
RMK AO2 RAB00 P0004 $




000
SAGM31 PGUM 262112
MTRGUM
SPECI PGUM 262111Z 28004KT 10SM +RA FEW013 BKN025 OVC034 26/24 A2986
RMK AO2 RAB00 P0004 $





000
SAGM31 PGUM 262105
MTRGUM
SPECI PGUM 262104Z 00000KT 10SM +RA SCT022 BKN031 OVC047 25/24 A2985
RMK AO2 RAB00 P0002 $




000
SAGM31 PGUM 262105
MTRGUM
SPECI PGUM 262104Z 00000KT 10SM +RA SCT022 BKN031 OVC047 25/24 A2985
RMK AO2 RAB00 P0002 $





000
SAGM31 PGUM 262055
MTRGUM
METAR PGUM 262054Z 00000KT 10SM SCT024 BKN029 BKN100 26/24 A2985 RMK
AO2 SLP101 T02560239 51006 $





000
SAGM31 PGUM 262055
MTRGUM
METAR PGUM 262054Z 00000KT 10SM SCT024 BKN029 BKN100 26/24 A2985 RMK
AO2 SLP101 T02560239 51006 $




000
SAGM31 PGUM 262018
MTRGUM
SPECI PGUM 262017Z 00000KT 10SM SCT020 25/23 A2983 RMK AO2 $




000
SAGM31 PGUM 262018
MTRGUM
SPECI PGUM 262017Z 00000KT 10SM SCT020 25/23 A2983 RMK AO2 $





000
SAGM31 PGUM 261955
MTRGUM
METAR PGUM 261954Z 18004KT 10SM BKN020 OVC026 24/24 A2983 RMK AO2
SLP095 T02440239 $




000
SAGM31 PGUM 261955
MTRGUM
METAR PGUM 261954Z 18004KT 10SM BKN020 OVC026 24/24 A2983 RMK AO2
SLP095 T02440239 $





000
SAGM31 PGUM 261947
MTRGUM
SPECI PGUM 261946Z 18004KT 10SM BKN022 24/23 A2983 RMK AO2 $




000
SAGM31 PGUM 261947
MTRGUM
SPECI PGUM 261946Z 18004KT 10SM BKN022 24/23 A2983 RMK AO2 $





000
SAGM31 PGUM 261855
MTRGUM
METAR PGUM 261854Z 35005KT 10SM CLR 24/23 A2983 RMK AO2 SLP095
T02440233 $




000
SAGM31 PGUM 261755
MTRGUM
METAR PGUM 261754Z 28003KT 10SM FEW100 24/23 A2983 RMK AO2 RAB13E54
SLP093 P0004 60004 T02390228 10272 20239 56015 $





000
SAGM31 PGUM 261755
MTRGUM
METAR PGUM 261754Z 28003KT 10SM FEW100 24/23 A2983 RMK AO2 RAB13E54
SLP093 P0004 60004 T02390228 10272 20239 56015 $




000
SAGM31 PGUM 261655
MTRGUM
METAR PGUM 261654Z 00000KT 10SM SCT041 SCT050 27/25 A2984 RMK AO2
SLP095 T02670250 $




000
SAGM31 PGUM 261655
MTRGUM
METAR PGUM 261654Z 00000KT 10SM SCT041 SCT050 27/25 A2984 RMK AO2
SLP095 T02670250 $





000
SAGM31 PGUM 261555
MTRGUM
METAR PGUM 261554Z 00000KT 10SM FEW024 SCT037 SCT045 27/25 A2985 RMK
AO2 SLP099 T02670250 $




000
SAGM31 PGUM 261555
MTRGUM
METAR PGUM 261554Z 00000KT 10SM FEW024 SCT037 SCT045 27/25 A2985 RMK
AO2 SLP099 T02670250 $





000
SAGM31 PGUM 261455
MTRGUM
METAR PGUM 261454Z 00000KT 10SM CLR 27/25 A2987 RMK AO2 SLP108 WND
SHEAR 60000 T02670250 50005 $




000
SAGM31 PGUM 261455
MTRGUM
METAR PGUM 261454Z 00000KT 10SM CLR 27/25 A2987 RMK AO2 SLP108 WND
SHEAR 60000 T02670250 50005 $





000
SAGM31 PGUM 261355
MTRGUM
METAR PGUM 261354Z 21003KT 10SM FEW020 SCT034 BKN048 27/25 A2989 RMK
AO2 RAB27E34 SLP115 P0000 T02670250 402830239 $




000
SAGM31 PGUM 261355
MTRGUM
METAR PGUM 261354Z 21003KT 10SM FEW020 SCT034 BKN048 27/25 A2989 RMK
AO2 RAB27E34 SLP115 P0000 T02670250 402830239 $





000
SAGM31 PGUM 261255
MTRGUM
METAR PGUM 261254Z 22005KT 10SM FEW020 BKN120 27/24 A2989 RMK AO2
SLP114 T02670244 $





000
SAGM31 PGUM 261255
MTRGUM
METAR PGUM 261254Z 22005KT 10SM FEW020 BKN120 27/24 A2989 RMK AO2
SLP114 T02670244 $




000
SAGM31 PGUM 261155
MTRGUM
METAR PGUM 261154Z 27008KT 10SM FEW020 SCT120 27/24 A2986 RMK AO2
SLP103 70080 T02720244 10283 20261 53001 $




000
SAGM31 PGUM 261155
MTRGUM
METAR PGUM 261154Z 27008KT 10SM FEW020 SCT120 27/24 A2986 RMK AO2
SLP103 70080 T02720244 10283 20261 53001 $





000
SAGM31 PGUM 261055
MTRGUM
METAR PGUM 261054Z 26005KT 10SM FEW025 SCT120 27/24 A2984 RMK AO2
SLP096 T02670244 $




000
SAGM31 PGUM 261055
MTRGUM
METAR PGUM 261054Z 26005KT 10SM FEW025 SCT120 27/24 A2984 RMK AO2
SLP096 T02670244 $





000
SAGM31 PGUM 260955
MTRGUM
METAR PGUM 260954Z 23005KT 10SM FEW025 SCT120 27/24 A2985 RMK AO2
SLP100 T02670239 $




000
SAGM31 PGUM 260855
MTRGUM
METAR PGUM 260854Z 24009KT 10SM FEW018 SCT120 27/23 A2985 RMK AO2
SLP102 T02670233 53017 $





000
SAGM31 PGUM 260855
MTRGUM
METAR PGUM 260854Z 24009KT 10SM FEW018 SCT120 27/23 A2985 RMK AO2
SLP102 T02670233 53017 $




000
SAGM31 PGUM 260755
MTRGUM
METAR PGUM 260754Z 21005KT 10SM FEW018 SCT023 SCT120 27/24 A2982 RMK
AO2 SLP090 T02670239 $




000
SAGM31 PGUM 260755
MTRGUM
METAR PGUM 260754Z 21005KT 10SM FEW018 SCT023 SCT120 27/24 A2982 RMK
AO2 SLP090 T02670239 $





000
SAGM31 PGUM 260655
MTRGUM
METAR PGUM 260654Z 21007KT 10SM SCT023 SCT028 BKN035 28/24 A2980 RMK
AO2 SLP084 T02780244 $





000
SAGM31 PGUM 260655
MTRGUM
METAR PGUM 260654Z 21007KT 10SM SCT023 SCT028 BKN035 28/24 A2980 RMK
AO2 SLP084 T02780244 $




000
SAGM31 PGUM 260647
MTRGUM
SPECI PGUM 260646Z 20008KT 10SM SCT023 BKN028 BKN035 28/24 A2980 RMK
AO2 $




000
SAGM31 PGUM 260647
MTRGUM
SPECI PGUM 260646Z 20008KT 10SM SCT023 BKN028 BKN035 28/24 A2980 RMK
AO2 $





000
SAGM31 PGUM 260555
MTRGUM
METAR PGUM 260554Z 21007G16KT 10SM SCT021 SCT027 28/25 A2980 RMK AO2
SLP084 60072 T02830250 10283 20250 56017 $




000
SAGM31 PGUM 260555
MTRGUM
METAR PGUM 260554Z 21007G16KT 10SM SCT021 SCT027 28/25 A2980 RMK AO2
SLP084 60072 T02830250 10283 20250 56017 $





000
SAGM31 PGUM 260455
MTRGUM
METAR PGUM 260454Z 21005KT 10SM SCT043 BKN090 BKN110 27/26 A2981 RMK
AO2 SLP089 P0001 T02720256 $




000
SAGM31 PGUM 260455
MTRGUM
METAR PGUM 260454Z 21005KT 10SM SCT043 BKN090 BKN110 27/26 A2981 RMK
AO2 SLP089 P0001 T02720256 $





000
SAGM31 PGUM 260355
MTRGUM
METAR PGUM 260354Z 19003KT 10SM FEW095 SCT120 26/25 A2984 RMK AO2
RAE50 SLP096 P0006 T02610250 $





000
SAGM31 PGUM 260355
MTRGUM
METAR PGUM 260354Z 19003KT 10SM FEW095 SCT120 26/25 A2984 RMK AO2
RAE50 SLP096 P0006 T02610250 $




000
SAGM31 PGUM 260255
MTRGUM
METAR PGUM 260254Z 20004KT 5SM RA FEW029 OVC100 26/25 A2985 RMK AO2
SLP102 P0020 60052 T02560250 58007 $




000
SAGM31 PGUM 260255
MTRGUM
METAR PGUM 260254Z 20004KT 5SM RA FEW029 OVC100 26/25 A2985 RMK AO2
SLP102 P0020 60052 T02560250 58007 $





000
SAGM31 PGUM 260155
MTRGUM
METAR PGUM 260154Z 00000KT 3SM RA FEW036 BKN080 OVC095 25/24 A2988
RMK AO2 SLP110 P0017 T02500244 $





000
SAGM31 PGUM 260155
MTRGUM
METAR PGUM 260154Z 00000KT 3SM RA FEW036 BKN080 OVC095 25/24 A2988
RMK AO2 SLP110 P0017 T02500244 $




000
SAGM31 PGUM 260122
MTRGUM
SPECI PGUM 260121Z 18004KT 8SM RA FEW015 BKN037 OVC075 25/24 A2989
RMK AO2 P0006 $




000
SAGM31 PGUM 260101
MTRGUM
SPECI PGUM 260100Z 22008KT 2SM +RA FEW009 BKN030 OVC039 26/24 A2988
RMK AO2 P0002 $





000
SAGM31 PGUM 260101
MTRGUM
SPECI PGUM 260100Z 22008KT 2SM +RA FEW009 BKN030 OVC039 26/24 A2988
RMK AO2 P0002 $




000
SAGM31 PGUM 260055
MTRGUM
METAR PGUM 260054Z 23007KT 7SM -RA FEW022 BKN036 OVC050 26/24 A2988
RMK AO2 SLP110 P0015 T02560244 $





000
SAGM31 PGUM 260055
MTRGUM
METAR PGUM 260054Z 23007KT 7SM -RA FEW022 BKN036 OVC050 26/24 A2988
RMK AO2 SLP110 P0015 T02560244 $




000
SAGM31 PGUM 260041
MTRGUM
SPECI PGUM 260040Z 00000KT 2 1/2SM +RA FEW010 SCT023 OVC031 25/25
A2988 RMK AO2 P0012 $





000
SAGM31 PGUM 260029
MTRGUM
SPECI PGUM 260028Z 00000KT 4SM -RA SCT012 BKN016 OVC021 25/24 A2988
RMK AO2 P0011 $




000
SAGM31 PGUM 260029
MTRGUM
SPECI PGUM 260028Z 00000KT 4SM -RA SCT012 BKN016 OVC021 25/24 A2988
RMK AO2 P0011 $





000
SAGM31 PGUM 260022
MTRGUM
SPECI PGUM 260021Z 00000KT 2SM RA OVC012 25/24 A2987 RMK AO2 P0009 $




000
SAGM31 PGUM 260012
MTRGUM
SPECI PGUM 260011Z 00000KT 1 1/2SM RA FEW009 OVC017 25/24 A2987 RMK
AO2 TWR VIS 2 VIS 1/2V3 P0004 $




000
SAGM31 PGUM 260012
MTRGUM
SPECI PGUM 260011Z 00000KT 1 1/2SM RA FEW009 OVC017 25/24 A2987 RMK
AO2 TWR VIS 2 VIS 1/2V3 P0004 $





000
SAGM31 PGUM 260005
MTRGUM
SPECI PGUM 260004Z 00000KT 2SM +RA FEW010 BKN024 OVC050 25/24 A2987
RMK AO2 SFC VIS 3 P0002 $




000
SAGM31 PGUM 260005
MTRGUM
SPECI PGUM 260004Z 00000KT 2SM +RA FEW010 BKN024 OVC050 25/24 A2987
RMK AO2 SFC VIS 3 P0002 $





000
SAGM31 PGUM 252357
MTRGUM
SPECI PGUM 252356Z 00000KT 1 3/4SM +RA FEW016 BKN029 OVC060 25/24
A2986 RMK AO2 TWR VIS 2 P0001 $




000
SAGM31 PGUM 252357
MTRGUM
SPECI PGUM 252356Z 00000KT 1 3/4SM +RA FEW016 BKN029 OVC060 25/24
A2986 RMK AO2 TWR VIS 2 P0001 $





000
SAGM31 PGUM 252355
MTRGUM
METAR PGUM 252354Z 00000KT 2SM +RA BKN031 BKN050 OVC060 25/24 A2986
RMK AO2 RAB28 SLP106 P0006 60007 CB DSNT W MOV N T02500244 10272
20239 51006 $




000
SAGM31 PGUM 252355
MTRGUM
METAR PGUM 252354Z 00000KT 2SM +RA BKN031 BKN050 OVC060 25/24 A2986
RMK AO2 RAB28 SLP106 P0006 60007 CB DSNT W MOV N T02500244 10272
20239 51006 $





000
SAGM31 PGUM 252343
MTRGUM
SPECI PGUM 252342Z 23003KT 2SM -RA FEW017 BKN050 OVC060 26/24 A2986
RMK AO2 SFC VIS 2 1/2 VIS 1 1/2V5 RAB28 CB DSNT W MOV N P0002 $




000
SAGM31 PGUM 252343
MTRGUM
SPECI PGUM 252342Z 23003KT 2SM -RA FEW017 BKN050 OVC060 26/24 A2986
RMK AO2 SFC VIS 2 1/2 VIS 1 1/2V5 RAB28 CB DSNT W MOV N P0002 $





000
SAGM31 PGUM 252255
MTRGUM
METAR PGUM 252254Z 00000KT 10SM FEW070 27/25 A2986 RMK AO2 SLP104
T02720250 $





000
SAGM31 PGUM 252255
MTRGUM
METAR PGUM 252254Z 00000KT 10SM FEW070 27/25 A2986 RMK AO2 SLP104
T02720250 $




000
SAGM31 PGUM 252155
MTRGUM
METAR PGUM 252154Z 00000KT 10SM FEW043 OVC055 26/24 A2986 RMK AO2
RAB00E12B30E39 SLP103 P0000 T02610244 $





000
SAGM31 PGUM 252155
MTRGUM
METAR PGUM 252154Z 00000KT 10SM FEW043 OVC055 26/24 A2986 RMK AO2
RAB00E12B30E39 SLP103 P0000 T02610244 $




000
SAGM31 PGUM 252126
MTRGUM
SPECI PGUM 252125Z 00000KT 10SM FEW018 BKN030 OVC037 26/25 A2985 RMK
AO2 RAB00E12 P0000 $





000
SAGM31 PGUM 252126
MTRGUM
SPECI PGUM 252125Z 00000KT 10SM FEW018 BKN030 OVC037 26/25 A2985 RMK
AO2 RAB00E12 P0000 $




000
SAGM31 PGUM 252105
MTRGUM
SPECI PGUM 252104Z 16004KT 6SM -RA BR SCT021 BKN029 OVC034 25/24
A2985 RMK AO2 RAB00 P0000 $




000
SAGM31 PGUM 252105
MTRGUM
SPECI PGUM 252104Z 16004KT 6SM -RA BR SCT021 BKN029 OVC034 25/24
A2985 RMK AO2 RAB00 P0000 $





000
SAGM31 PGUM 252055
MTRGUM
METAR PGUM 252054Z 16004KT 10SM FEW022 SCT028 BKN035 26/24 A2985 RMK
AO2 SLP099 T02560244 53006 $





000
SAGM31 PGUM 252055
MTRGUM
METAR PGUM 252054Z 16004KT 10SM FEW022 SCT028 BKN035 26/24 A2985 RMK
AO2 SLP099 T02560244 53006 $




000
SAGM31 PGUM 251955
MTRGUM
METAR PGUM 251954Z 00000KT 10SM CLR 25/24 A2983 RMK AO2 SLP093
T02500239 $




000
SAGM31 PGUM 251955
MTRGUM
METAR PGUM 251954Z 00000KT 10SM CLR 25/24 A2983 RMK AO2 SLP093
T02500239 $





000
SAGM31 PGUM 251855
MTRGUM
METAR PGUM 251854Z 00000KT 10SM CLR 24/24 A2981 RMK AO2 SLP088
T02440239 $





000
SAGM31 PGUM 251755
MTRGUM
METAR PGUM 251754Z 00000KT 10SM CLR 25/24 A2983 RMK AO2 RAE09 SLP093
P0001 60001 T02500239 10267 20250 53001 $




000
SAGM31 PGUM 251755
MTRGUM
METAR PGUM 251754Z 00000KT 10SM CLR 25/24 A2983 RMK AO2 RAE09 SLP093
P0001 60001 T02500239 10267 20250 53001 $





000
SAGM31 PGUM 251655
MTRGUM
METAR PGUM 251654Z 17004KT 10SM -RA CLR 25/24 A2982 RMK AO2 RAB39
SLP090 P0000 T02500239 $




000
SAGM31 PGUM 251655
MTRGUM
METAR PGUM 251654Z 17004KT 10SM -RA CLR 25/24 A2982 RMK AO2 RAB39
SLP090 P0000 T02500239 $





000
SAGM31 PGUM 251555
MTRGUM
METAR PGUM 251554Z 17007KT 10SM FEW020 BKN100 26/24 A2983 RMK AO2
SLP092 T02560239 $




000
SAGM31 PGUM 251555
MTRGUM
METAR PGUM 251554Z 17007KT 10SM FEW020 BKN100 26/24 A2983 RMK AO2
SLP092 T02560239 $





000
SAGM31 PGUM 251544
MTRGUM
SPECI PGUM 251543Z 17009KT 10SM FEW011 SCT018 BKN095 26/24 A2982 RMK
AO2 $




000
SAGM31 PGUM 251544
MTRGUM
SPECI PGUM 251543Z 17009KT 10SM FEW011 SCT018 BKN095 26/24 A2982 RMK
AO2 $





000
SAGM31 PGUM 251502
MTRGUM
SPECI PGUM 251501Z 18011G25KT 10SM FEW011 SCT018 BKN024 26/25 A2982
RMK AO2 $




000
SAGM31 PGUM 251502
MTRGUM
SPECI PGUM 251501Z 18011G25KT 10SM FEW011 SCT018 BKN024 26/25 A2982
RMK AO2 $





000
SAGM31 PGUM 251455
MTRGUM
METAR PGUM 251454Z 17014G21KT 10SM SCT018 27/25 A2982 RMK AO2 SLP090
T02670250 55011 $




000
SAGM31 PGUM 251455
MTRGUM
METAR PGUM 251454Z 17014G21KT 10SM SCT018 27/25 A2982 RMK AO2 SLP090
T02670250 55011 $





    US Dept of Commerce
    National Oceanic and Atmospheric Administration
    National Weather Service
    1325 East West Highway
    Silver Spring, MD 20910
    Page Author: NWS Internet Services Team
Disclaimer
Information Quality
Credits
Glossary
Privacy Policy
Freedom of Information Act (FOIA)
About Us
Career Opportunities